createdAt,value
2018-03-04T00:02:17.749Z,39.97
2018-03-04T00:04:47.025Z,39.87
2018-03-04T00:07:16.316Z,35.57
2018-03-04T00:09:48.095Z,36.90
2018-03-04T00:12:17.470Z,38.10
2018-03-04T00:14:47.541Z,39.67
2018-03-04T00:17:16.951Z,36.80
2018-03-04T00:19:46.215Z,38.37
2018-03-04T00:22:16.281Z,36.67
2018-03-04T00:24:45.651Z,37.50
2018-03-04T00:27:15.659Z,40.03
2018-03-04T00:29:45.001Z,37.43
2018-03-04T00:32:14.263Z,36.87
2018-03-04T00:34:43.542Z,39.20
2018-03-04T00:37:14.302Z,38.50
2018-03-04T00:39:43.585Z,37.90
2018-03-04T00:42:12.885Z,37.97
2018-03-04T00:44:42.180Z,40.70
2018-03-04T00:47:11.442Z,40.27
2018-03-04T00:49:40.720Z,39.50
2018-03-04T00:52:09.983Z,40.50
2018-03-04T00:54:39.277Z,40.30
2018-03-04T00:57:08.517Z,38.20
2018-03-04T00:59:37.806Z,39.30
2018-03-04T01:02:07.075Z,37.60
2018-03-04T01:04:36.349Z,37.93
2018-03-04T01:07:05.658Z,40.17
2018-03-04T01:09:34.917Z,38.10
2018-03-04T01:12:04.266Z,38.73
2018-03-04T01:14:33.715Z,39.40
2018-03-04T01:17:03.129Z,38.87
2018-03-04T01:19:32.504Z,40.87
2018-03-04T01:22:01.799Z,36.93
2018-03-04T01:24:31.147Z,36.50
2018-03-04T01:27:01.253Z,38.40
2018-03-04T01:29:32.234Z,37.23
2018-03-04T01:32:01.518Z,36.70
2018-03-04T01:34:30.805Z,36.57
2018-03-04T01:37:00.839Z,38.70
2018-03-04T01:39:30.123Z,36.47
2018-03-04T01:41:59.391Z,40.30
2018-03-04T01:44:28.809Z,37.07
2018-03-04T01:46:58.942Z,34.03
2018-03-04T01:49:29.014Z,41.07
2018-03-04T01:51:58.251Z,39.33
2018-03-04T01:54:27.523Z,37.70
2018-03-04T01:56:56.803Z,34.77
2018-03-04T01:59:26.050Z,37.30
2018-03-04T02:01:55.353Z,38.37
2018-03-04T02:04:24.591Z,39.67
2018-03-04T02:06:53.892Z,39.60
2018-03-04T02:09:23.142Z,40.30
2018-03-04T02:11:52.532Z,37.60
2018-03-04T02:14:21.814Z,38.50
2018-03-04T02:16:51.068Z,39.30
2018-03-04T02:19:20.350Z,37.40
2018-03-04T02:21:49.603Z,39.47
2018-03-04T02:24:18.911Z,37.20
2018-03-04T02:26:48.179Z,38.20
2018-03-04T02:29:17.480Z,44.80
2018-03-04T02:31:47.522Z,38.40
2018-03-04T02:34:16.805Z,38.10
2018-03-04T02:36:46.193Z,39.73
2018-03-04T02:39:16.257Z,37.67
2018-03-04T02:41:45.512Z,38.67
2018-03-04T02:44:16.342Z,37.10
2018-03-04T02:46:45.614Z,39.23
2018-03-04T02:49:15.102Z,34.30
2018-03-04T02:51:45.000Z,38.83
2018-03-04T02:54:14.255Z,37.60
2018-03-04T02:56:43.871Z,37.27
2018-03-04T02:59:13.138Z,35.73
2018-03-04T03:01:42.421Z,38.97
2018-03-04T03:04:11.715Z,40.33
2018-03-04T03:06:41.010Z,39.83
2018-03-04T03:09:10.316Z,44.30
2018-03-04T03:11:39.622Z,38.90
2018-03-04T03:14:09.095Z,41.97
2018-03-04T03:16:38.342Z,39.50
2018-03-04T03:19:07.631Z,43.20
2018-03-04T03:21:36.965Z,40.27
2018-03-04T03:24:06.238Z,43.20
2018-03-04T03:26:35.522Z,46.27
2018-03-04T03:29:04.832Z,42.37
2018-03-04T03:31:34.096Z,43.63
2018-03-04T03:34:03.369Z,43.40
2018-03-04T03:36:32.708Z,43.57
2018-03-04T03:39:02.774Z,39.60
2018-03-04T03:41:32.111Z,39.23
2018-03-04T03:44:01.352Z,41.97
2018-03-04T03:46:30.602Z,45.67
2018-03-04T03:48:59.873Z,44.50
2018-03-04T03:51:29.138Z,43.67
2018-03-04T03:53:58.422Z,45.37
2018-03-04T03:56:27.697Z,46.30
2018-03-04T03:58:56.965Z,43.07
2018-03-04T04:01:26.222Z,46.40
2018-03-04T04:03:55.503Z,44.70
2018-03-04T04:06:24.937Z,45.90
2018-03-04T04:08:54.974Z,45.77
2018-03-04T04:11:24.249Z,43.70
2018-03-04T04:13:54.316Z,74.90
2018-03-04T04:16:23.785Z,44.90
2018-03-04T04:18:53.850Z,48.73
2018-03-04T04:21:23.114Z,44.57
2018-03-04T04:23:52.513Z,45.07
2018-03-04T04:26:22.550Z,45.37
2018-03-04T04:28:51.818Z,54.20
2018-03-04T04:31:21.087Z,48.53
2018-03-04T04:33:50.356Z,44.67
2018-03-04T04:36:19.839Z,44.67
2018-03-04T04:38:49.114Z,38.87
2018-03-04T04:41:18.355Z,39.63
2018-03-04T04:43:47.634Z,44.80
2018-03-04T04:46:16.890Z,43.90
2018-03-04T04:48:46.189Z,46.43
2018-03-04T04:51:15.465Z,50.03
2018-03-04T04:53:44.767Z,42.73
2018-03-04T04:56:14.205Z,48.70
2018-03-04T04:58:43.472Z,45.67
2018-03-04T05:01:12.717Z,46.47
2018-03-04T05:03:41.989Z,47.23
2018-03-04T05:06:11.254Z,43.80
2018-03-04T05:08:40.505Z,45.17
2018-03-04T05:11:09.776Z,41.73
2018-03-04T05:13:39.214Z,43.57
2018-03-04T05:16:08.502Z,42.87
2018-03-04T05:18:37.763Z,42.23
2018-03-04T05:21:07.049Z,46.50
2018-03-04T05:23:37.084Z,42.77
2018-03-04T05:26:06.349Z,43.90
2018-03-04T05:28:35.595Z,44.60
2018-03-04T05:31:04.930Z,43.00
2018-03-04T05:33:34.196Z,45.30
2018-03-04T05:36:03.445Z,44.57
2018-03-04T05:38:32.726Z,46.10
2018-03-04T05:41:02.085Z,44.20
2018-03-04T05:43:32.138Z,42.20
2018-03-04T05:46:01.382Z,42.60
2018-03-04T05:48:30.650Z,43.83
2018-03-04T05:50:59.910Z,47.73
2018-03-04T05:53:29.959Z,46.60
2018-03-04T05:56:00.181Z,46.33
2018-03-04T05:58:29.440Z,49.50
2018-03-04T06:00:59.609Z,44.70
2018-03-04T06:03:28.880Z,49.30
2018-03-04T06:05:58.994Z,51.27
2018-03-04T06:08:29.015Z,46.60
2018-03-04T06:10:58.520Z,49.70
2018-03-04T06:13:27.925Z,47.87
2018-03-04T06:15:57.164Z,44.77
2018-03-04T06:18:26.428Z,45.87
2018-03-04T06:20:55.700Z,45.13
2018-03-04T06:23:24.989Z,45.27
2018-03-04T06:25:54.332Z,47.00
2018-03-04T06:28:23.595Z,46.33
2018-03-04T06:30:52.863Z,46.90
2018-03-04T06:33:22.177Z,53.57
2018-03-04T06:35:51.468Z,52.77
2018-03-04T06:38:20.879Z,47.00
2018-03-04T06:40:50.135Z,47.87
2018-03-04T06:43:19.446Z,46.70
2018-03-04T06:45:48.794Z,53.43
2018-03-04T06:48:18.066Z,53.27
2018-03-04T06:50:47.327Z,50.17
2018-03-04T06:53:16.579Z,49.67
2018-03-04T06:55:45.868Z,44.80
2018-03-04T06:58:15.221Z,42.90
2018-03-04T07:00:44.573Z,50.90
2018-03-04T07:03:13.860Z,50.87
2018-03-04T07:05:43.579Z,59.60
2018-03-04T07:08:12.859Z,59.33
2018-03-04T07:10:42.125Z,53.03
2018-03-04T07:13:11.410Z,52.50
2018-03-04T07:15:40.854Z,48.57
2018-03-04T07:18:10.902Z,48.43
2018-03-04T07:20:40.198Z,52.30
2018-03-04T07:23:09.514Z,52.70
2018-03-04T07:25:38.917Z,51.17
2018-03-04T07:28:08.934Z,53.97
2018-03-04T07:30:38.206Z,50.27
2018-03-04T07:33:07.475Z,52.50
2018-03-04T07:35:36.777Z,50.23
2018-03-04T07:38:06.042Z,49.97
2018-03-04T07:40:35.302Z,53.37
2018-03-04T07:43:06.033Z,50.33
2018-03-04T07:45:36.065Z,52.47
2018-03-04T07:48:05.439Z,66.90
2018-03-04T07:50:34.830Z,52.13
2018-03-04T07:53:04.108Z,51.30
2018-03-04T07:55:33.381Z,49.37
2018-03-04T07:58:03.422Z,49.40
2018-03-04T08:00:32.749Z,70.00
2018-03-04T08:03:02.008Z,55.20
2018-03-04T08:05:31.326Z,49.63
2018-03-04T08:08:00.707Z,51.10
2018-03-04T08:10:30.754Z,49.33
2018-03-04T08:13:00.011Z,48.53
2018-03-04T08:15:29.273Z,50.83
2018-03-04T08:17:58.557Z,46.77
2018-03-04T08:20:27.837Z,45.93
2018-03-04T08:22:57.308Z,46.73
2018-03-04T08:25:36.650Z,46.47
2018-03-04T08:28:23.784Z,49.30
2018-03-04T08:30:53.849Z,49.20
2018-03-04T08:33:23.118Z,47.20
2018-03-04T08:35:52.386Z,49.63
2018-03-04T08:38:21.680Z,45.47
2018-03-04T08:40:50.999Z,47.03
2018-03-04T08:43:21.766Z,48.47
2018-03-04T08:45:51.017Z,44.83
2018-03-04T08:48:20.310Z,49.20
2018-03-04T08:50:49.605Z,51.50
2018-03-04T08:53:18.934Z,44.20
2018-03-04T08:55:49.780Z,49.30
2018-03-04T08:58:19.092Z,55.00
2018-03-04T09:00:48.307Z,46.73
2018-03-04T09:03:17.608Z,54.67
2018-03-04T09:05:46.875Z,51.20
2018-03-04T09:08:16.171Z,56.40
2018-03-04T09:10:45.497Z,50.20
2018-03-04T09:13:14.863Z,48.77
2018-03-04T09:15:44.134Z,48.87
2018-03-04T09:18:13.424Z,46.57
2018-03-04T09:20:42.702Z,47.30
2018-03-04T09:23:11.981Z,44.67
2018-03-04T09:25:41.267Z,48.40
2018-03-04T09:28:10.790Z,45.03
2018-03-04T09:30:40.069Z,48.87
2018-03-04T09:33:10.931Z,46.97
2018-03-04T09:35:40.166Z,51.30
2018-03-04T09:38:09.541Z,43.83
2018-03-04T09:40:39.069Z,46.67
2018-03-04T09:43:08.430Z,42.43
2018-03-04T09:45:37.757Z,42.67
2018-03-04T09:48:07.042Z,43.70
2018-03-04T09:50:36.480Z,47.27
2018-03-04T09:53:06.586Z,46.17
2018-03-04T09:55:36.621Z,45.93
2018-03-04T09:58:05.910Z,43.80
2018-03-04T10:00:35.140Z,46.97
2018-03-04T10:03:04.442Z,44.70
2018-03-04T10:05:33.697Z,45.00
2018-03-04T10:08:03.083Z,46.27
2018-03-04T10:10:32.485Z,51.17
2018-03-04T10:13:01.736Z,53.03
2018-03-04T10:15:31.009Z,50.33
2018-03-04T10:18:00.280Z,44.87
2018-03-04T10:20:29.625Z,46.37
2018-03-04T10:22:58.845Z,44.20
2018-03-04T10:25:28.177Z,48.70
2018-03-04T10:27:57.440Z,42.47
2018-03-04T10:30:27.492Z,47.00
2018-03-04T10:32:57.602Z,43.50
2018-03-04T10:35:27.805Z,46.87
2018-03-04T10:37:57.995Z,45.13
2018-03-04T10:40:27.264Z,43.50
2018-03-04T10:42:56.740Z,44.03
2018-03-04T10:45:26.042Z,47.13
2018-03-04T10:47:55.338Z,45.33
2018-03-04T10:50:24.621Z,42.10
2018-03-04T10:52:54.133Z,44.13
2018-03-04T10:55:23.452Z,40.67
2018-03-04T10:57:52.734Z,41.90
2018-03-04T11:00:24.352Z,44.40
2018-03-04T11:02:59.945Z,41.97
2018-03-04T11:05:29.365Z,46.27
2018-03-04T11:07:59.758Z,40.47
2018-03-04T11:10:29.116Z,41.13
2018-03-04T11:12:58.438Z,45.90
2018-03-04T11:15:28.547Z,40.20
2018-03-04T11:17:58.676Z,36.83
2018-03-04T11:20:27.965Z,40.07
2018-03-04T11:22:58.080Z,37.43
2018-03-04T11:25:27.373Z,42.70
2018-03-04T11:27:56.669Z,40.90
2018-03-04T11:30:27.465Z,38.50
2018-03-04T11:32:56.844Z,41.50
2018-03-04T11:35:26.129Z,40.33
2018-03-04T11:37:56.282Z,42.43
2018-03-04T11:40:25.582Z,39.60
2018-03-04T11:42:54.956Z,43.47
2018-03-04T11:45:24.283Z,39.27
2018-03-04T11:47:53.584Z,39.20
2018-03-04T11:50:22.926Z,39.37
2018-03-04T11:52:52.397Z,37.10
2018-03-04T11:55:21.718Z,39.67
2018-03-04T11:57:51.025Z,38.57
2018-03-04T12:00:20.361Z,35.70
2018-03-04T12:02:49.625Z,38.30
2018-03-04T12:05:18.926Z,41.00
2018-03-04T12:07:48.812Z,38.93
2018-03-04T12:10:18.610Z,44.20
2018-03-04T12:12:48.019Z,35.03
2018-03-04T12:15:17.445Z,42.00
2018-03-04T12:17:47.493Z,40.97
2018-03-04T12:20:17.471Z,37.87
2018-03-04T12:22:46.975Z,35.50
2018-03-04T12:25:16.519Z,34.07
2018-03-04T12:27:45.784Z,36.20
2018-03-04T12:30:15.140Z,35.67
2018-03-04T12:32:44.469Z,35.10
2018-03-04T12:35:13.714Z,35.30
2018-03-04T12:37:43.016Z,45.97
2018-03-04T12:40:12.321Z,46.57
2018-03-04T12:42:41.651Z,39.27
2018-03-04T12:45:11.026Z,31.53
2018-03-04T12:47:40.369Z,34.07
2018-03-04T12:50:09.774Z,34.90
2018-03-04T12:52:39.402Z,30.70
2018-03-04T12:55:08.689Z,31.90
2018-03-04T12:57:38.025Z,30.53
2018-03-04T13:00:07.301Z,28.97
2018-03-04T13:02:37.603Z,30.87
2018-03-04T13:05:06.893Z,35.90
2018-03-04T13:07:36.326Z,33.77
2018-03-04T13:10:05.965Z,34.33
2018-03-04T13:12:37.501Z,35.83
2018-03-04T13:15:07.132Z,35.00
2018-03-04T13:17:36.445Z,32.10
2018-03-04T13:20:05.775Z,32.10
2018-03-04T13:22:35.163Z,33.03
2018-03-04T13:25:04.505Z,32.13
2018-03-04T13:27:33.805Z,31.80
2018-03-04T13:30:03.349Z,32.53
2018-03-04T13:32:32.792Z,33.27
2018-03-04T13:35:02.227Z,32.70
2018-03-04T13:37:32.386Z,32.00
2018-03-04T13:40:02.473Z,33.50
2018-03-04T13:42:32.545Z,32.60
2018-03-04T13:45:01.834Z,30.87
2018-03-04T13:47:31.802Z,32.60
2018-03-04T13:50:01.876Z,33.00
2018-03-04T13:52:31.667Z,33.80
2018-03-04T13:55:01.408Z,33.43
2018-03-04T13:57:30.800Z,34.07
2018-03-04T14:00:00.109Z,34.63
2018-03-04T14:02:29.522Z,33.73
2018-03-04T14:04:58.796Z,31.50
2018-03-04T14:07:28.291Z,30.57
2018-03-04T14:09:57.830Z,31.93
2018-03-04T14:12:27.202Z,31.90
2018-03-04T14:14:57.434Z,29.27
2018-03-04T14:17:26.759Z,30.33
2018-03-04T14:19:56.187Z,31.20
2018-03-04T14:22:25.517Z,28.40
2018-03-04T14:24:54.850Z,27.50
2018-03-04T14:27:24.154Z,26.70
2018-03-04T14:29:53.440Z,28.43
2018-03-04T14:32:22.756Z,27.13
2018-03-04T14:34:52.805Z,25.60
2018-03-04T14:37:22.170Z,28.83
2018-03-04T14:39:51.651Z,25.30
2018-03-04T14:42:20.961Z,25.23
2018-03-04T14:44:50.307Z,25.00
2018-03-04T14:47:19.660Z,24.37
2018-03-04T14:49:49.040Z,23.90
2018-03-04T14:52:18.305Z,25.23
2018-03-04T14:54:47.610Z,23.90
2018-03-04T14:57:17.275Z,23.40
2018-03-04T14:59:46.704Z,23.80
2018-03-04T15:02:16.932Z,24.20
2018-03-04T15:04:46.219Z,25.33
2018-03-04T15:07:15.527Z,24.40
2018-03-04T15:09:44.788Z,24.27
2018-03-04T15:12:14.317Z,21.63
2018-03-04T15:14:43.625Z,23.67
2018-03-04T15:17:13.046Z,27.00
2018-03-04T15:19:42.351Z,22.20
2018-03-04T15:22:11.839Z,24.90
2018-03-04T15:24:42.004Z,21.43
2018-03-04T15:27:11.263Z,22.40
2018-03-04T15:29:41.359Z,24.17
2018-03-04T15:32:11.572Z,22.13
2018-03-04T15:34:40.833Z,21.77
2018-03-04T15:37:10.115Z,19.17
2018-03-04T15:39:40.313Z,20.93
2018-03-04T15:42:09.712Z,20.00
2018-03-04T15:44:39.054Z,20.57
2018-03-04T15:47:08.384Z,20.30
2018-03-04T15:49:37.646Z,18.07
2018-03-04T15:52:06.964Z,19.83
2018-03-04T15:54:36.275Z,17.90
2018-03-04T15:57:05.558Z,20.50
2018-03-04T15:59:34.906Z,18.70
2018-03-04T16:02:04.185Z,20.97
2018-03-04T16:04:33.478Z,19.80
2018-03-04T16:07:02.741Z,18.83
2018-03-04T16:09:32.898Z,20.50
2018-03-04T16:12:02.153Z,18.43
2018-03-04T16:14:32.279Z,20.40
2018-03-04T16:17:01.483Z,18.87
2018-03-04T16:19:30.764Z,23.00
2018-03-04T16:22:00.042Z,21.20
2018-03-04T16:24:29.326Z,20.47
2018-03-04T16:26:59.381Z,22.20
2018-03-04T16:29:28.634Z,19.97
2018-03-04T16:31:57.902Z,21.57
2018-03-04T16:34:27.945Z,19.70
2018-03-04T16:36:58.117Z,22.63
2018-03-04T16:39:28.152Z,21.50
2018-03-04T16:41:57.416Z,19.93
2018-03-04T16:44:26.732Z,22.50
2018-03-04T16:46:56.088Z,18.90
2018-03-04T16:49:26.331Z,21.60
2018-03-04T16:51:55.602Z,20.40
2018-03-04T16:54:25.698Z,20.73
2018-03-04T16:56:54.976Z,24.67
2018-03-04T16:59:24.321Z,23.83
2018-03-04T17:01:53.651Z,22.53
2018-03-04T17:04:22.902Z,20.13
2018-03-04T17:06:52.201Z,22.57
2018-03-04T17:09:21.479Z,22.40
2018-03-04T17:11:50.720Z,21.90
2018-03-04T17:14:21.512Z,23.30
2018-03-04T17:16:50.783Z,21.90
2018-03-04T17:19:20.817Z,19.27
2018-03-04T17:21:50.887Z,21.17
2018-03-04T17:24:20.166Z,20.77
2018-03-04T17:26:50.313Z,19.73
2018-03-04T17:29:19.568Z,20.13
2018-03-04T17:31:48.852Z,18.60
2018-03-04T17:34:18.132Z,20.80
2018-03-04T17:36:47.440Z,18.73
2018-03-04T17:39:16.813Z,22.07
2018-03-04T17:41:46.261Z,19.90
2018-03-04T17:44:15.542Z,18.83
2018-03-04T17:46:44.822Z,20.90
2018-03-04T17:49:14.078Z,18.33
2018-03-04T17:51:43.645Z,19.07
2018-03-04T17:54:12.942Z,18.20
2018-03-04T17:56:42.247Z,19.83
2018-03-04T17:59:11.489Z,18.30
2018-03-04T18:01:41.005Z,20.13
2018-03-04T18:04:10.301Z,17.80
2018-03-04T18:06:40.402Z,18.90
2018-03-04T18:09:10.556Z,21.27
2018-03-04T18:11:40.055Z,18.53
2018-03-04T18:14:09.406Z,20.17
2018-03-04T18:16:38.834Z,23.57
2018-03-04T18:19:08.162Z,22.67
2018-03-04T18:21:37.510Z,18.40
2018-03-04T18:24:07.025Z,22.40
2018-03-04T18:26:36.337Z,20.60
2018-03-04T18:29:05.636Z,22.00
2018-03-04T18:31:34.981Z,23.63
2018-03-04T18:34:04.336Z,23.20
2018-03-04T18:36:33.686Z,20.67
2018-03-04T18:39:02.952Z,22.50
2018-03-04T18:41:32.242Z,22.37
2018-03-04T18:44:03.046Z,23.33
2018-03-04T18:46:32.422Z,21.40
2018-03-04T18:49:02.612Z,19.23
2018-03-04T18:51:32.046Z,19.93
2018-03-04T18:54:02.110Z,21.30
2018-03-04T18:56:31.437Z,20.40
2018-03-04T18:59:00.726Z,27.23
2018-03-04T19:01:30.167Z,21.20
2018-03-04T19:04:00.279Z,26.77
2018-03-04T19:06:30.349Z,24.77
2018-03-04T19:08:59.754Z,24.10
2018-03-04T19:11:29.030Z,22.80
2018-03-04T19:13:58.379Z,24.10
2018-03-04T19:16:27.967Z,20.63
2018-03-04T19:18:57.296Z,19.23
2018-03-04T19:21:26.868Z,21.10
2018-03-04T19:23:56.266Z,18.27
2018-03-04T19:26:25.814Z,18.70
2018-03-04T19:28:55.128Z,17.97
2018-03-04T19:31:24.627Z,19.97
2018-03-04T19:33:54.274Z,19.73
2018-03-04T19:36:23.564Z,19.10
2018-03-04T19:38:53.645Z,17.77
2018-03-04T19:41:22.992Z,17.37
2018-03-04T19:43:52.331Z,17.27
2018-03-04T19:46:21.642Z,17.67
2018-03-04T19:48:50.993Z,18.17
2018-03-04T19:51:20.264Z,20.20
2018-03-04T19:53:49.568Z,16.90
2018-03-04T19:56:18.838Z,17.30
2018-03-04T19:58:48.114Z,18.80
2018-03-04T20:01:17.442Z,15.00
2018-03-04T20:03:47.362Z,14.33
2018-03-04T20:06:16.690Z,15.90
2018-03-04T20:08:46.010Z,14.40
2018-03-04T20:11:15.245Z,17.07
2018-03-04T20:13:44.635Z,17.03
2018-03-04T20:16:13.968Z,14.27
2018-03-04T20:18:43.267Z,15.83
2018-03-04T20:21:12.532Z,13.50
2018-03-04T20:23:41.848Z,14.87
2018-03-04T20:26:11.222Z,16.30
2018-03-04T20:28:40.512Z,13.63
2018-03-04T20:31:09.955Z,14.90
2018-03-04T20:33:39.272Z,23.30
2018-03-04T20:36:09.057Z,17.20
2018-03-04T20:38:39.163Z,17.67
2018-03-04T20:41:09.276Z,14.87
2018-03-04T20:43:39.365Z,13.67
2018-03-04T20:46:08.665Z,13.50
2018-03-04T20:48:38.033Z,13.00
2018-03-04T20:51:07.431Z,12.97
2018-03-04T20:53:36.682Z,13.47
2018-03-04T20:56:05.997Z,12.33
2018-03-04T20:58:35.310Z,13.60
2018-03-04T21:01:04.818Z,11.70
2018-03-04T21:03:34.787Z,13.37
2018-03-04T21:06:04.086Z,13.93
2018-03-04T21:08:33.363Z,12.07
2018-03-04T21:11:02.660Z,12.90
2018-03-04T21:13:34.391Z,12.17
2018-03-04T21:16:05.211Z,12.67
2018-03-04T21:18:34.485Z,12.37
2018-03-04T21:21:03.982Z,11.33
2018-03-04T21:23:33.266Z,13.17
2018-03-04T21:26:02.525Z,12.70
2018-03-04T21:28:31.806Z,13.23
2018-03-04T21:31:01.129Z,12.53
2018-03-04T21:33:38.447Z,13.27
2018-03-04T21:36:07.797Z,13.90
2018-03-04T21:38:37.043Z,12.70
2018-03-04T21:41:06.324Z,11.60
2018-03-04T21:43:35.632Z,11.87
2018-03-04T21:46:05.881Z,11.40
2018-03-04T21:48:36.012Z,14.33
2018-03-04T21:51:06.606Z,10.83
2018-03-04T21:53:36.123Z,12.30
2018-03-04T21:56:05.841Z,13.63
2018-03-04T21:58:35.109Z,14.10
2018-03-04T22:01:04.543Z,11.67
2018-03-04T22:03:35.295Z,14.17
2018-03-04T22:06:04.918Z,12.50
2018-03-04T22:08:34.800Z,13.30
2018-03-04T22:11:05.631Z,13.57
2018-03-04T22:13:35.596Z,14.80
2018-03-04T22:16:05.296Z,12.80
2018-03-04T22:18:34.568Z,13.20
2018-03-04T22:21:03.821Z,12.80
2018-03-04T22:23:33.095Z,13.17
2018-03-04T22:26:02.398Z,13.33
2018-03-04T22:28:31.652Z,15.93
2018-03-04T22:31:00.942Z,12.87
2018-03-04T22:33:30.201Z,15.40
2018-03-04T22:35:59.518Z,15.80
2018-03-04T22:38:28.723Z,14.20
2018-03-04T22:40:57.990Z,14.00
2018-03-04T22:43:28.235Z,14.87
2018-03-04T22:45:57.515Z,15.47
2018-03-04T22:48:26.810Z,14.53
2018-03-04T22:50:56.094Z,16.30
2018-03-04T22:53:25.503Z,15.67
2018-03-04T22:55:54.793Z,16.73
2018-03-04T22:58:24.835Z,14.67
2018-03-04T23:00:54.108Z,17.13
2018-03-04T23:03:23.357Z,16.30
2018-03-04T23:05:53.406Z,15.23
2018-03-04T23:08:22.845Z,16.97
2018-03-04T23:10:52.135Z,15.07
2018-03-04T23:13:21.416Z,15.73
2018-03-04T23:15:50.811Z,16.57
2018-03-04T23:18:20.093Z,17.97
2018-03-04T23:20:49.340Z,19.43
2018-03-04T23:23:20.107Z,19.60
2018-03-04T23:25:49.383Z,19.53
2018-03-04T23:28:18.642Z,19.23
2018-03-04T23:30:47.902Z,19.20
2018-03-04T23:33:17.938Z,19.40
2018-03-04T23:35:47.185Z,18.83
2018-03-04T23:38:17.254Z,19.30
2018-03-04T23:40:46.659Z,19.30
2018-03-04T23:43:15.967Z,21.27
2018-03-04T23:45:45.456Z,18.47
2018-03-04T23:48:14.767Z,17.77
2018-03-04T23:50:44.127Z,19.20
2018-03-04T23:53:13.380Z,20.20
2018-03-04T23:55:42.769Z,22.03
2018-03-04T23:58:12.979Z,18.27
